sensor_id;sensor_type;location;lat;lon;timestamp;temperature;humidity
52471;DHT22;38382;53.160;7.026;2023-05-10T00:01:06;13.70;99.90
52471;DHT22;38382;53.160;7.026;2023-05-10T00:03:31;13.70;99.90
52471;DHT22;38382;53.160;7.026;2023-05-10T00:05:57;13.70;99.90
52471;DHT22;38382;53.160;7.026;2023-05-10T00:08:23;13.70;99.90
52471;DHT22;38382;53.160;7.026;2023-05-10T00:10:49;13.70;99.90
52471;DHT22;38382;53.160;7.026;2023-05-10T00:13:15;13.70;99.90
52471;DHT22;38382;53.160;7.026;2023-05-10T00:15:40;13.70;99.90
52471;DHT22;38382;53.160;7.026;2023-05-10T00:18:06;13.70;99.90
52471;DHT22;38382;53.160;7.026;2023-05-10T00:20:32;13.70;99.90
52471;DHT22;38382;53.160;7.026;2023-05-10T00:22:58;13.70;99.90
52471;DHT22;38382;53.160;7.026;2023-05-10T00:25:24;13.70;99.90
52471;DHT22;38382;53.160;7.026;2023-05-10T00:27:50;13.70;99.90
52471;DHT22;38382;53.160;7.026;2023-05-10T00:30:16;13.60;99.90
52471;DHT22;38382;53.160;7.026;2023-05-10T00:32:41;13.60;99.90
52471;DHT22;38382;53.160;7.026;2023-05-10T00:35:07;13.70;99.90
52471;DHT22;38382;53.160;7.026;2023-05-10T00:37:33;13.60;99.90
52471;DHT22;38382;53.160;7.026;2023-05-10T00:39:59;13.60;99.90
52471;DHT22;38382;53.160;7.026;2023-05-10T00:42:25;13.60;99.90
52471;DHT22;38382;53.160;7.026;2023-05-10T00:44:50;13.60;99.90
52471;DHT22;38382;53.160;7.026;2023-05-10T00:47:16;13.50;99.90
52471;DHT22;38382;53.160;7.026;2023-05-10T00:49:43;13.50;99.90
52471;DHT22;38382;53.160;7.026;2023-05-10T00:52:09;13.50;99.90
52471;DHT22;38382;53.160;7.026;2023-05-10T00:54:36;13.40;99.90
52471;DHT22;38382;53.160;7.026;2023-05-10T00:57:02;13.40;99.90
52471;DHT22;38382;53.160;7.026;2023-05-10T00:59:28;13.30;99.90
52471;DHT22;38382;53.160;7.026;2023-05-10T01:01:54;13.30;99.90
52471;DHT22;38382;53.160;7.026;2023-05-10T01:04:20;13.30;99.90
52471;DHT22;38382;53.160;7.026;2023-05-10T01:06:51;13.20;99.90
52471;DHT22;38382;53.160;7.026;2023-05-10T01:09:18;13.20;99.90
52471;DHT22;38382;53.160;7.026;2023-05-10T01:11:44;13.20;99.90
52471;DHT22;38382;53.160;7.026;2023-05-10T01:14:10;13.10;99.90
52471;DHT22;38382;53.160;7.026;2023-05-10T01:16:38;13.10;99.90
52471;DHT22;38382;53.160;7.026;2023-05-10T01:19:12;13.00;99.90
52471;DHT22;38382;53.160;7.026;2023-05-10T01:21:55;13.10;99.90
52471;DHT22;38382;53.160;7.026;2023-05-10T01:27:41;13.00;99.90
52471;DHT22;38382;53.160;7.026;2023-05-10T01:33:30;12.90;99.90
52471;DHT22;38382;53.160;7.026;2023-05-10T01:36:26;12.90;99.90
52471;DHT22;38382;53.160;7.026;2023-05-10T01:47:27;12.80;99.90
52471;DHT22;38382;53.160;7.026;2023-05-10T01:49:56;12.80;99.90
52471;DHT22;38382;53.160;7.026;2023-05-10T01:52:29;12.80;99.90
52471;DHT22;38382;53.160;7.026;2023-05-10T01:55:01;12.80;99.90
52471;DHT22;38382;53.160;7.026;2023-05-10T01:57:34;12.80;99.90
52471;DHT22;38382;53.160;7.026;2023-05-10T02:00:02;12.80;99.90
52471;DHT22;38382;53.160;7.026;2023-05-10T02:04:57;12.80;99.90
52471;DHT22;38382;53.160;7.026;2023-05-10T02:07:24;12.80;99.90
52471;DHT22;38382;53.160;7.026;2023-05-10T02:09:50;12.80;99.90
52471;DHT22;38382;53.160;7.026;2023-05-10T02:12:17;12.70;99.90
52471;DHT22;38382;53.160;7.026;2023-05-10T02:14:44;12.80;99.90
52471;DHT22;38382;53.160;7.026;2023-05-10T02:17:11;12.80;99.90
52471;DHT22;38382;53.160;7.026;2023-05-10T02:19:40;12.70;99.90
52471;DHT22;38382;53.160;7.026;2023-05-10T02:22:06;12.70;99.90
52471;DHT22;38382;53.160;7.026;2023-05-10T02:24:34;12.70;99.90
52471;DHT22;38382;53.160;7.026;2023-05-10T02:27:03;12.70;99.90
52471;DHT22;38382;53.160;7.026;2023-05-10T02:29:30;12.70;99.90
52471;DHT22;38382;53.160;7.026;2023-05-10T02:31:57;12.70;99.90
52471;DHT22;38382;53.160;7.026;2023-05-10T02:34:25;12.60;99.90
52471;DHT22;38382;53.160;7.026;2023-05-10T02:36:53;12.70;99.90
52471;DHT22;38382;53.160;7.026;2023-05-10T02:39:19;12.70;99.90
52471;DHT22;38382;53.160;7.026;2023-05-10T02:41:47;12.70;99.90
52471;DHT22;38382;53.160;7.026;2023-05-10T02:44:15;12.60;99.90
52471;DHT22;38382;53.160;7.026;2023-05-10T02:46:43;12.60;99.90
52471;DHT22;38382;53.160;7.026;2023-05-10T02:49:09;12.60;99.90
52471;DHT22;38382;53.160;7.026;2023-05-10T02:51:38;12.70;99.90
52471;DHT22;38382;53.160;7.026;2023-05-10T02:54:19;12.60;99.90
52471;DHT22;38382;53.160;7.026;2023-05-10T02:56:51;12.60;99.90
52471;DHT22;38382;53.160;7.026;2023-05-10T02:59:19;12.60;99.90
52471;DHT22;38382;53.160;7.026;2023-05-10T03:01:45;12.60;99.90
52471;DHT22;38382;53.160;7.026;2023-05-10T03:04:10;12.70;99.90
52471;DHT22;38382;53.160;7.026;2023-05-10T03:06:36;12.70;99.90
52471;DHT22;38382;53.160;7.026;2023-05-10T03:09:03;12.60;99.90
52471;DHT22;38382;53.160;7.026;2023-05-10T03:14:31;12.60;99.90
52471;DHT22;38382;53.160;7.026;2023-05-10T03:16:57;12.60;99.90
52471;DHT22;38382;53.160;7.026;2023-05-10T03:19:48;12.60;99.90
52471;DHT22;38382;53.160;7.026;2023-05-10T03:22:25;12.50;99.90
52471;DHT22;38382;53.160;7.026;2023-05-10T03:24:54;12.50;99.90
52471;DHT22;38382;53.160;7.026;2023-05-10T03:27:22;12.50;99.90
52471;DHT22;38382;53.160;7.026;2023-05-10T03:29:48;12.50;99.90
52471;DHT22;38382;53.160;7.026;2023-05-10T03:32:14;12.50;99.90
52471;DHT22;38382;53.160;7.026;2023-05-10T03:34:43;12.40;99.90
52471;DHT22;38382;53.160;7.026;2023-05-10T03:37:09;12.40;99.90
52471;DHT22;38382;53.160;7.026;2023-05-10T03:39:35;12.40;99.90
52471;DHT22;38382;53.160;7.026;2023-05-10T03:42:01;12.40;99.90
52471;DHT22;38382;53.160;7.026;2023-05-10T03:44:27;12.40;99.90
52471;DHT22;38382;53.160;7.026;2023-05-10T03:46:52;12.40;99.90
52471;DHT22;38382;53.160;7.026;2023-05-10T03:49:18;12.40;99.90
52471;DHT22;38382;53.160;7.026;2023-05-10T03:51:44;12.40;99.90
52471;DHT22;38382;53.160;7.026;2023-05-10T03:54:09;12.40;99.90
52471;DHT22;38382;53.160;7.026;2023-05-10T03:56:35;12.40;99.90
52471;DHT22;38382;53.160;7.026;2023-05-10T03:59:01;12.40;99.90
52471;DHT22;38382;53.160;7.026;2023-05-10T04:01:27;12.40;99.90
52471;DHT22;38382;53.160;7.026;2023-05-10T04:03:52;12.40;99.90
52471;DHT22;38382;53.160;7.026;2023-05-10T04:06:18;12.40;99.90
52471;DHT22;38382;53.160;7.026;2023-05-10T04:08:44;12.40;99.90
52471;DHT22;38382;53.160;7.026;2023-05-10T04:11:11;12.40;99.90
52471;DHT22;38382;53.160;7.026;2023-05-10T04:13:38;12.40;99.90
52471;DHT22;38382;53.160;7.026;2023-05-10T04:16:04;12.40;99.90
52471;DHT22;38382;53.160;7.026;2023-05-10T04:18:30;12.30;99.90
52471;DHT22;38382;53.160;7.026;2023-05-10T04:20:56;12.40;99.90
52471;DHT22;38382;53.160;7.026;2023-05-10T04:23:22;12.40;99.90
52471;DHT22;38382;53.160;7.026;2023-05-10T04:25:48;12.40;99.90
52471;DHT22;38382;53.160;7.026;2023-05-10T04:28:14;12.40;99.90
52471;DHT22;38382;53.160;7.026;2023-05-10T04:30:39;12.30;99.90
52471;DHT22;38382;53.160;7.026;2023-05-10T04:33:06;12.40;99.90
52471;DHT22;38382;53.160;7.026;2023-05-10T04:35:31;12.40;99.90
52471;DHT22;38382;53.160;7.026;2023-05-10T04:37:57;12.40;99.90
52471;DHT22;38382;53.160;7.026;2023-05-10T04:40:23;12.40;99.90
52471;DHT22;38382;53.160;7.026;2023-05-10T04:42:48;12.40;99.90
52471;DHT22;38382;53.160;7.026;2023-05-10T04:45:14;12.40;99.90
52471;DHT22;38382;53.160;7.026;2023-05-10T04:47:41;12.40;99.90
52471;DHT22;38382;53.160;7.026;2023-05-10T04:50:07;12.50;99.90
52471;DHT22;38382;53.160;7.026;2023-05-10T04:52:33;12.50;99.90
52471;DHT22;38382;53.160;7.026;2023-05-10T04:54:59;12.50;99.90
52471;DHT22;38382;53.160;7.026;2023-05-10T04:57:24;12.50;99.90
52471;DHT22;38382;53.160;7.026;2023-05-10T04:59:50;12.40;99.90
52471;DHT22;38382;53.160;7.026;2023-05-10T05:02:16;12.50;99.90
52471;DHT22;38382;53.160;7.026;2023-05-10T05:04:42;12.40;99.90
52471;DHT22;38382;53.160;7.026;2023-05-10T05:07:07;12.40;99.90
52471;DHT22;38382;53.160;7.026;2023-05-10T05:09:33;12.40;99.90
52471;DHT22;38382;53.160;7.026;2023-05-10T05:11:59;12.50;99.90
52471;DHT22;38382;53.160;7.026;2023-05-10T05:14:25;12.40;99.90
52471;DHT22;38382;53.160;7.026;2023-05-10T05:16:52;12.50;99.90
52471;DHT22;38382;53.160;7.026;2023-05-10T05:19:17;12.40;99.90
52471;DHT22;38382;53.160;7.026;2023-05-10T05:21:43;12.50;99.90
52471;DHT22;38382;53.160;7.026;2023-05-10T05:24:09;12.50;99.90
52471;DHT22;38382;53.160;7.026;2023-05-10T05:26:35;12.50;99.90
52471;DHT22;38382;53.160;7.026;2023-05-10T05:29:02;12.50;99.90
52471;DHT22;38382;53.160;7.026;2023-05-10T05:31:28;12.50;99.90
52471;DHT22;38382;53.160;7.026;2023-05-10T05:33:54;12.50;99.90
52471;DHT22;38382;53.160;7.026;2023-05-10T05:36:20;12.50;99.90
52471;DHT22;38382;53.160;7.026;2023-05-10T05:38:46;12.60;99.90
52471;DHT22;38382;53.160;7.026;2023-05-10T05:41:12;12.50;99.90
52471;DHT22;38382;53.160;7.026;2023-05-10T05:43:38;12.60;99.90
52471;DHT22;38382;53.160;7.026;2023-05-10T05:46:04;12.60;99.90
52471;DHT22;38382;53.160;7.026;2023-05-10T05:48:30;12.60;99.90
52471;DHT22;38382;53.160;7.026;2023-05-10T05:51:02;12.60;99.90
52471;DHT22;38382;53.160;7.026;2023-05-10T05:53:27;12.60;99.90
52471;DHT22;38382;53.160;7.026;2023-05-10T05:55:57;12.60;99.90
52471;DHT22;38382;53.160;7.026;2023-05-10T05:58:24;12.60;99.90
52471;DHT22;38382;53.160;7.026;2023-05-10T06:00:50;12.60;99.90
52471;DHT22;38382;53.160;7.026;2023-05-10T06:03:18;12.60;99.90
52471;DHT22;38382;53.160;7.026;2023-05-10T06:05:44;12.60;99.90
52471;DHT22;38382;53.160;7.026;2023-05-10T06:08:10;12.60;99.90
52471;DHT22;38382;53.160;7.026;2023-05-10T06:10:36;12.60;99.90
52471;DHT22;38382;53.160;7.026;2023-05-10T06:13:02;12.60;99.90
52471;DHT22;38382;53.160;7.026;2023-05-10T06:15:27;12.60;99.90
52471;DHT22;38382;53.160;7.026;2023-05-10T06:17:53;12.60;99.90
52471;DHT22;38382;53.160;7.026;2023-05-10T06:20:19;12.60;99.90
52471;DHT22;38382;53.160;7.026;2023-05-10T06:22:45;12.60;99.90
52471;DHT22;38382;53.160;7.026;2023-05-10T06:25:11;12.60;99.90
52471;DHT22;38382;53.160;7.026;2023-05-10T06:27:37;12.60;99.90
52471;DHT22;38382;53.160;7.026;2023-05-10T06:30:03;12.60;99.90
52471;DHT22;38382;53.160;7.026;2023-05-10T06:32:29;12.70;99.90
52471;DHT22;38382;53.160;7.026;2023-05-10T06:34:55;12.70;99.90
52471;DHT22;38382;53.160;7.026;2023-05-10T06:37:20;12.70;99.90
52471;DHT22;38382;53.160;7.026;2023-05-10T06:39:46;12.60;99.90
52471;DHT22;38382;53.160;7.026;2023-05-10T06:42:12;12.60;99.90
52471;DHT22;38382;53.160;7.026;2023-05-10T06:44:37;12.60;99.90
52471;DHT22;38382;53.160;7.026;2023-05-10T06:47:03;12.70;99.90
52471;DHT22;38382;53.160;7.026;2023-05-10T06:49:29;12.60;99.90
52471;DHT22;38382;53.160;7.026;2023-05-10T06:51:57;12.60;99.90
52471;DHT22;38382;53.160;7.026;2023-05-10T06:54:23;12.60;99.90
52471;DHT22;38382;53.160;7.026;2023-05-10T06:56:49;12.70;99.90
52471;DHT22;38382;53.160;7.026;2023-05-10T06:59:15;12.70;99.90
52471;DHT22;38382;53.160;7.026;2023-05-10T07:01:42;12.70;99.90
52471;DHT22;38382;53.160;7.026;2023-05-10T07:04:08;12.70;99.90
52471;DHT22;38382;53.160;7.026;2023-05-10T07:06:34;12.70;99.90
52471;DHT22;38382;53.160;7.026;2023-05-10T07:09:00;12.80;99.90
52471;DHT22;38382;53.160;7.026;2023-05-10T07:11:26;12.80;99.90
52471;DHT22;38382;53.160;7.026;2023-05-10T07:13:52;12.80;99.90
52471;DHT22;38382;53.160;7.026;2023-05-10T07:16:18;12.80;99.90
52471;DHT22;38382;53.160;7.026;2023-05-10T07:18:43;12.80;99.90
52471;DHT22;38382;53.160;7.026;2023-05-10T07:21:09;12.80;99.90
52471;DHT22;38382;53.160;7.026;2023-05-10T07:23:35;12.80;99.90
52471;DHT22;38382;53.160;7.026;2023-05-10T07:26:00;12.80;99.90
52471;DHT22;38382;53.160;7.026;2023-05-10T07:28:27;12.80;99.90
52471;DHT22;38382;53.160;7.026;2023-05-10T07:30:53;12.90;99.90
52471;DHT22;38382;53.160;7.026;2023-05-10T07:33:19;12.90;99.90
52471;DHT22;38382;53.160;7.026;2023-05-10T07:35:45;12.90;99.90
52471;DHT22;38382;53.160;7.026;2023-05-10T07:38:10;12.90;99.90
52471;DHT22;38382;53.160;7.026;2023-05-10T07:40:36;12.80;99.90
52471;DHT22;38382;53.160;7.026;2023-05-10T07:43:03;12.80;99.90
52471;DHT22;38382;53.160;7.026;2023-05-10T07:45:29;12.80;99.90
52471;DHT22;38382;53.160;7.026;2023-05-10T07:47:54;12.80;99.90
52471;DHT22;38382;53.160;7.026;2023-05-10T07:50:20;12.80;99.90
52471;DHT22;38382;53.160;7.026;2023-05-10T07:52:47;12.80;99.90
52471;DHT22;38382;53.160;7.026;2023-05-10T07:55:13;12.80;99.90
52471;DHT22;38382;53.160;7.026;2023-05-10T07:57:39;12.80;99.90
52471;DHT22;38382;53.160;7.026;2023-05-10T08:00:06;12.80;99.90
52471;DHT22;38382;53.160;7.026;2023-05-10T08:02:33;12.90;99.90
52471;DHT22;38382;53.160;7.026;2023-05-10T08:04:59;12.80;99.90
52471;DHT22;38382;53.160;7.026;2023-05-10T08:07:25;12.80;99.90
52471;DHT22;38382;53.160;7.026;2023-05-10T08:09:50;12.80;99.90
52471;DHT22;38382;53.160;7.026;2023-05-10T08:12:16;12.80;99.90
52471;DHT22;38382;53.160;7.026;2023-05-10T08:14:42;12.80;99.90
52471;DHT22;38382;53.160;7.026;2023-05-10T08:17:08;12.80;99.90
52471;DHT22;38382;53.160;7.026;2023-05-10T08:19:35;12.90;99.90
52471;DHT22;38382;53.160;7.026;2023-05-10T08:22:01;12.90;99.90
52471;DHT22;38382;53.160;7.026;2023-05-10T08:24:27;12.90;99.90
52471;DHT22;38382;53.160;7.026;2023-05-10T08:26:52;12.90;99.90
52471;DHT22;38382;53.160;7.026;2023-05-10T08:29:18;12.90;99.90
52471;DHT22;38382;53.160;7.026;2023-05-10T08:31:44;12.90;99.90
52471;DHT22;38382;53.160;7.026;2023-05-10T08:34:10;12.90;99.90
52471;DHT22;38382;53.160;7.026;2023-05-10T08:36:36;12.90;99.90
52471;DHT22;38382;53.160;7.026;2023-05-10T08:39:02;12.90;99.90
52471;DHT22;38382;53.160;7.026;2023-05-10T08:41:28;13.00;99.90
52471;DHT22;38382;53.160;7.026;2023-05-10T08:43:55;12.90;99.90
52471;DHT22;38382;53.160;7.026;2023-05-10T08:46:22;12.90;99.90
52471;DHT22;38382;53.160;7.026;2023-05-10T08:48:49;12.90;99.90
52471;DHT22;38382;53.160;7.026;2023-05-10T08:51:21;12.90;99.90
52471;DHT22;38382;53.160;7.026;2023-05-10T08:53:47;12.90;99.90
52471;DHT22;38382;53.160;7.026;2023-05-10T08:56:14;12.80;99.90
52471;DHT22;38382;53.160;7.026;2023-05-10T08:58:41;12.80;99.90
52471;DHT22;38382;53.160;7.026;2023-05-10T09:01:07;12.90;99.90
52471;DHT22;38382;53.160;7.026;2023-05-10T09:03:34;12.80;99.90
52471;DHT22;38382;53.160;7.026;2023-05-10T09:06:00;12.80;99.90
52471;DHT22;38382;53.160;7.026;2023-05-10T09:08:26;12.80;99.90
52471;DHT22;38382;53.160;7.026;2023-05-10T09:10:53;12.90;99.90
52471;DHT22;38382;53.160;7.026;2023-05-10T09:13:19;12.80;99.90
52471;DHT22;38382;53.160;7.026;2023-05-10T09:15:47;12.90;99.90
52471;DHT22;38382;53.160;7.026;2023-05-10T09:18:13;12.90;99.90
52471;DHT22;38382;53.160;7.026;2023-05-10T09:20:39;12.90;99.90
52471;DHT22;38382;53.160;7.026;2023-05-10T09:23:05;12.90;99.90
52471;DHT22;38382;53.160;7.026;2023-05-10T09:25:31;13.00;99.90
52471;DHT22;38382;53.160;7.026;2023-05-10T09:28:00;13.00;99.90
52471;DHT22;38382;53.160;7.026;2023-05-10T09:30:30;13.10;99.90
52471;DHT22;38382;53.160;7.026;2023-05-10T09:32:57;13.10;99.90
52471;DHT22;38382;53.160;7.026;2023-05-10T09:35:26;13.20;99.90
52471;DHT22;38382;53.160;7.026;2023-05-10T09:37:57;13.30;99.90
52471;DHT22;38382;53.160;7.026;2023-05-10T09:40:24;13.30;99.90
52471;DHT22;38382;53.160;7.026;2023-05-10T09:42:58;13.30;99.90
52471;DHT22;38382;53.160;7.026;2023-05-10T09:45:25;13.30;99.90
52471;DHT22;38382;53.160;7.026;2023-05-10T09:47:51;13.40;99.90
52471;DHT22;38382;53.160;7.026;2023-05-10T09:50:18;13.40;99.90
52471;DHT22;38382;53.160;7.026;2023-05-10T09:52:52;13.40;99.90
52471;DHT22;38382;53.160;7.026;2023-05-10T09:55:23;13.30;99.90
52471;DHT22;38382;53.160;7.026;2023-05-10T09:57:49;13.30;99.90
52471;DHT22;38382;53.160;7.026;2023-05-10T10:00:23;13.40;99.90
52471;DHT22;38382;53.160;7.026;2023-05-10T10:02:59;13.40;99.90
52471;DHT22;38382;53.160;7.026;2023-05-10T10:05:29;13.50;99.90
52471;DHT22;38382;53.160;7.026;2023-05-10T10:08:00;13.60;99.90
52471;DHT22;38382;53.160;7.026;2023-05-10T10:10:26;13.70;99.90
52471;DHT22;38382;53.160;7.026;2023-05-10T10:12:53;13.70;99.90
52471;DHT22;38382;53.160;7.026;2023-05-10T10:15:20;13.60;99.90
52471;DHT22;38382;53.160;7.026;2023-05-10T10:17:46;13.60;99.90
52471;DHT22;38382;53.160;7.026;2023-05-10T10:20:14;13.50;99.90
52471;DHT22;38382;53.160;7.026;2023-05-10T10:22:40;13.60;99.90
52471;DHT22;38382;53.160;7.026;2023-05-10T10:25:07;13.70;99.90
52471;DHT22;38382;53.160;7.026;2023-05-10T10:30:37;14.20;99.90
52471;DHT22;38382;53.160;7.026;2023-05-10T10:36:08;14.30;99.90
52471;DHT22;38382;53.160;7.026;2023-05-10T10:38:54;14.40;99.90
52471;DHT22;38382;53.160;7.026;2023-05-10T10:41:28;14.40;99.90
52471;DHT22;38382;53.160;7.026;2023-05-10T10:50:05;14.20;99.90
52471;DHT22;38382;53.160;7.026;2023-05-10T10:52:36;14.20;99.90
52471;DHT22;38382;53.160;7.026;2023-05-10T10:55:03;14.10;99.90
52471;DHT22;38382;53.160;7.026;2023-05-10T10:57:32;14.20;99.90
52471;DHT22;38382;53.160;7.026;2023-05-10T11:00:18;14.30;99.90
52471;DHT22;38382;53.160;7.026;2023-05-10T11:02:46;14.40;99.90
52471;DHT22;38382;53.160;7.026;2023-05-10T11:05:46;14.50;99.90
52471;DHT22;38382;53.160;7.026;2023-05-10T11:10:53;14.80;99.90
52471;DHT22;38382;53.160;7.026;2023-05-10T11:15:53;15.10;99.90
52471;DHT22;38382;53.160;7.026;2023-05-10T11:23:20;15.10;99.90
52471;DHT22;38382;53.160;7.026;2023-05-10T11:25:48;15.00;99.90
52471;DHT22;38382;53.160;7.026;2023-05-10T11:28:14;15.20;99.90
52471;DHT22;38382;53.160;7.026;2023-05-10T11:30:41;15.30;99.90
52471;DHT22;38382;53.160;7.026;2023-05-10T11:33:09;15.40;99.90
52471;DHT22;38382;53.160;7.026;2023-05-10T11:35:38;15.50;99.90
52471;DHT22;38382;53.160;7.026;2023-05-10T11:38:08;15.60;99.90
52471;DHT22;38382;53.160;7.026;2023-05-10T11:40:36;15.70;99.90
52471;DHT22;38382;53.160;7.026;2023-05-10T11:43:02;15.60;99.90
52471;DHT22;38382;53.160;7.026;2023-05-10T11:45:29;15.70;99.90
52471;DHT22;38382;53.160;7.026;2023-05-10T11:47:58;15.70;99.90
52471;DHT22;38382;53.160;7.026;2023-05-10T11:50:24;15.70;99.90
52471;DHT22;38382;53.160;7.026;2023-05-10T11:52:57;15.80;99.90
52471;DHT22;38382;53.160;7.026;2023-05-10T11:55:24;15.60;99.90
52471;DHT22;38382;53.160;7.026;2023-05-10T11:57:54;15.50;99.90
52471;DHT22;38382;53.160;7.026;2023-05-10T12:00:20;15.40;99.90
52471;DHT22;38382;53.160;7.026;2023-05-10T12:02:47;15.30;99.90
52471;DHT22;38382;53.160;7.026;2023-05-10T12:05:13;15.30;99.90
52471;DHT22;38382;53.160;7.026;2023-05-10T12:07:39;15.30;99.90
52471;DHT22;38382;53.160;7.026;2023-05-10T12:12:43;15.20;99.90
52471;DHT22;38382;53.160;7.026;2023-05-10T12:15:17;15.20;99.90
52471;DHT22;38382;53.160;7.026;2023-05-10T12:17:44;15.30;99.90
52471;DHT22;38382;53.160;7.026;2023-05-10T12:20:28;15.20;99.90
52471;DHT22;38382;53.160;7.026;2023-05-10T12:22:56;15.20;99.90
52471;DHT22;38382;53.160;7.026;2023-05-10T12:25:23;15.20;99.90
52471;DHT22;38382;53.160;7.026;2023-05-10T12:27:54;15.30;99.90
52471;DHT22;38382;53.160;7.026;2023-05-10T12:30:29;15.40;99.90
52471;DHT22;38382;53.160;7.026;2023-05-10T12:33:07;15.40;99.90
52471;DHT22;38382;53.160;7.026;2023-05-10T12:35:38;15.50;99.90
52471;DHT22;38382;53.160;7.026;2023-05-10T12:38:37;15.60;99.90
52471;DHT22;38382;53.160;7.026;2023-05-10T12:41:06;15.60;99.90
52471;DHT22;38382;53.160;7.026;2023-05-10T12:43:32;15.50;99.90
52471;DHT22;38382;53.160;7.026;2023-05-10T12:46:13;15.50;99.90
52471;DHT22;38382;53.160;7.026;2023-05-10T12:48:40;15.40;99.90
52471;DHT22;38382;53.160;7.026;2023-05-10T12:51:07;15.40;99.90
52471;DHT22;38382;53.160;7.026;2023-05-10T12:53:41;15.40;99.90
52471;DHT22;38382;53.160;7.026;2023-05-10T12:56:07;15.40;99.90
52471;DHT22;38382;53.160;7.026;2023-05-10T12:58:33;15.50;99.90
52471;DHT22;38382;53.160;7.026;2023-05-10T13:00:59;15.60;99.90
52471;DHT22;38382;53.160;7.026;2023-05-10T13:03:25;15.70;99.90
52471;DHT22;38382;53.160;7.026;2023-05-10T13:05:51;15.70;99.90
52471;DHT22;38382;53.160;7.026;2023-05-10T13:08:17;15.70;99.90
52471;DHT22;38382;53.160;7.026;2023-05-10T13:10:42;15.70;99.90
52471;DHT22;38382;53.160;7.026;2023-05-10T13:13:08;15.70;99.90
52471;DHT22;38382;53.160;7.026;2023-05-10T13:15:35;15.70;99.90
52471;DHT22;38382;53.160;7.026;2023-05-10T13:18:01;15.80;99.90
52471;DHT22;38382;53.160;7.026;2023-05-10T13:20:27;15.80;99.90
52471;DHT22;38382;53.160;7.026;2023-05-10T13:22:52;15.80;99.90
52471;DHT22;38382;53.160;7.026;2023-05-10T13:25:18;15.70;99.90
52471;DHT22;38382;53.160;7.026;2023-05-10T13:27:44;15.80;99.90
52471;DHT22;38382;53.160;7.026;2023-05-10T13:30:10;15.80;99.90
52471;DHT22;38382;53.160;7.026;2023-05-10T13:32:36;15.90;99.90
52471;DHT22;38382;53.160;7.026;2023-05-10T13:35:03;16.00;99.90
52471;DHT22;38382;53.160;7.026;2023-05-10T13:37:30;16.10;99.90
52471;DHT22;38382;53.160;7.026;2023-05-10T13:39:55;16.40;99.90
52471;DHT22;38382;53.160;7.026;2023-05-10T13:42:24;16.60;99.90
52471;DHT22;38382;53.160;7.026;2023-05-10T13:44:50;16.80;99.90
52471;DHT22;38382;53.160;7.026;2023-05-10T13:47:16;16.80;99.90
52471;DHT22;38382;53.160;7.026;2023-05-10T13:49:42;16.90;99.90
52471;DHT22;38382;53.160;7.026;2023-05-10T13:52:08;16.70;99.90
52471;DHT22;38382;53.160;7.026;2023-05-10T13:54:38;16.80;99.90
52471;DHT22;38382;53.160;7.026;2023-05-10T13:57:04;17.00;99.90
52471;DHT22;38382;53.160;7.026;2023-05-10T13:59:30;17.20;99.90
52471;DHT22;38382;53.160;7.026;2023-05-10T14:01:59;17.40;99.90
52471;DHT22;38382;53.160;7.026;2023-05-10T14:04:28;17.40;99.90
52471;DHT22;38382;53.160;7.026;2023-05-10T14:06:54;17.40;99.90
52471;DHT22;38382;53.160;7.026;2023-05-10T14:09:19;17.50;99.90
52471;DHT22;38382;53.160;7.026;2023-05-10T14:11:45;17.60;99.90
52471;DHT22;38382;53.160;7.026;2023-05-10T14:14:11;17.80;99.90
52471;DHT22;38382;53.160;7.026;2023-05-10T14:16:38;17.90;99.90
52471;DHT22;38382;53.160;7.026;2023-05-10T14:19:04;18.50;99.90
52471;DHT22;38382;53.160;7.026;2023-05-10T14:21:29;18.80;99.90
52471;DHT22;38382;53.160;7.026;2023-05-10T14:23:56;19.40;99.90
52471;DHT22;38382;53.160;7.026;2023-05-10T14:26:21;19.30;99.90
52471;DHT22;38382;53.160;7.026;2023-05-10T14:28:47;19.20;99.90
52471;DHT22;38382;53.160;7.026;2023-05-10T14:31:13;19.00;99.90
52471;DHT22;38382;53.160;7.026;2023-05-10T14:33:40;18.80;99.90
52471;DHT22;38382;53.160;7.026;2023-05-10T14:36:06;18.60;99.90
52471;DHT22;38382;53.160;7.026;2023-05-10T14:38:32;18.50;99.90
52471;DHT22;38382;53.160;7.026;2023-05-10T14:40:58;18.30;99.90
52471;DHT22;38382;53.160;7.026;2023-05-10T14:43:24;17.90;99.90
52471;DHT22;38382;53.160;7.026;2023-05-10T14:45:49;17.80;99.90
52471;DHT22;38382;53.160;7.026;2023-05-10T14:48:15;17.60;99.90
52471;DHT22;38382;53.160;7.026;2023-05-10T14:50:43;17.60;99.90
52471;DHT22;38382;53.160;7.026;2023-05-10T14:53:09;17.60;99.90
52471;DHT22;38382;53.160;7.026;2023-05-10T14:55:35;17.60;99.90
52471;DHT22;38382;53.160;7.026;2023-05-10T14:58:04;17.50;99.90
52471;DHT22;38382;53.160;7.026;2023-05-10T15:00:30;17.60;99.90
52471;DHT22;38382;53.160;7.026;2023-05-10T15:02:56;17.60;99.90
52471;DHT22;38382;53.160;7.026;2023-05-10T15:05:23;17.60;99.90
52471;DHT22;38382;53.160;7.026;2023-05-10T15:07:48;17.50;99.90
52471;DHT22;38382;53.160;7.026;2023-05-10T15:10:15;17.50;99.90
52471;DHT22;38382;53.160;7.026;2023-05-10T15:12:40;17.60;99.90
52471;DHT22;38382;53.160;7.026;2023-05-10T15:15:07;17.50;99.90
52471;DHT22;38382;53.160;7.026;2023-05-10T15:17:33;17.40;99.90
52471;DHT22;38382;53.160;7.026;2023-05-10T15:19:59;17.40;99.90
52471;DHT22;38382;53.160;7.026;2023-05-10T15:22:25;17.30;99.90
52471;DHT22;38382;53.160;7.026;2023-05-10T15:24:51;17.30;99.90
52471;DHT22;38382;53.160;7.026;2023-05-10T15:27:16;17.10;99.90
52471;DHT22;38382;53.160;7.026;2023-05-10T15:29:42;17.30;99.90
52471;DHT22;38382;53.160;7.026;2023-05-10T15:32:08;17.30;99.90
52471;DHT22;38382;53.160;7.026;2023-05-10T15:34:33;17.30;99.90
52471;DHT22;38382;53.160;7.026;2023-05-10T15:36:59;17.20;99.90
52471;DHT22;38382;53.160;7.026;2023-05-10T15:39:25;17.20;99.90
52471;DHT22;38382;53.160;7.026;2023-05-10T15:41:51;17.30;99.90
52471;DHT22;38382;53.160;7.026;2023-05-10T15:44:16;17.40;99.90
52471;DHT22;38382;53.160;7.026;2023-05-10T15:46:44;17.40;99.90
52471;DHT22;38382;53.160;7.026;2023-05-10T15:49:09;17.40;99.90
52471;DHT22;38382;53.160;7.026;2023-05-10T15:51:35;17.40;99.90
52471;DHT22;38382;53.160;7.026;2023-05-10T15:54:01;17.40;99.90
52471;DHT22;38382;53.160;7.026;2023-05-10T15:56:32;17.40;99.90
52471;DHT22;38382;53.160;7.026;2023-05-10T15:58:58;17.40;99.90
52471;DHT22;38382;53.160;7.026;2023-05-10T16:01:24;17.40;99.90
52471;DHT22;38382;53.160;7.026;2023-05-10T16:03:50;17.30;99.90
52471;DHT22;38382;53.160;7.026;2023-05-10T16:06:16;17.30;99.90
52471;DHT22;38382;53.160;7.026;2023-05-10T16:08:42;17.30;99.90
52471;DHT22;38382;53.160;7.026;2023-05-10T16:11:07;17.10;99.90
52471;DHT22;38382;53.160;7.026;2023-05-10T16:13:33;17.10;99.90
52471;DHT22;38382;53.160;7.026;2023-05-10T16:15:59;17.00;99.90